EWG24C EDXW-EDDK
Flight info
| Callsign | EWG24C |
|---|---|
| Flight time | N/A |
| Altitude | 32000 |
| Route | OLDIP1B/32 OLDIP DCT BADOS DCT OMWEG Y348 ELSOB DCT LARBU Z189 RUNER/N0372F240 T858 KOPAG |
| Aircraft | A320/M-SDE3FGHIRWY/LB1 |
Departure
| Time | 2026-04-25 22:24 |
|---|---|
| Airport | Westerland Sylt Airport (EDXW) |
Arrival
| Time | N/A |
|---|---|
| Airport | Cologne Bonn Airport (EDDK) |
| Time | Latitude | Longitude | Altitude | Speed | Heading |
|---|---|---|---|---|---|
| 2026-04-25 21:36 | 54.91386 | 8.33120 | 15 ft | 0 kts | 270° |
| 2026-04-25 22:10 | 54.91386 | 8.33119 | 16 ft | 2 kts | 270° |
| 2026-04-25 22:11 | 54.91386 | 8.33118 | 29 ft | 0 kts | 270° |
| 2026-04-25 22:12 | 54.91386 | 8.33119 | 29 ft | 0 kts | 270° |
| 2026-04-25 22:12 | 54.91386 | 8.33124 | 29 ft | 2 kts | 270° |
| 2026-04-25 22:12 | 54.91386 | 8.33143 | 29 ft | 2 kts | 270° |
| 2026-04-25 22:13 | 54.91386 | 8.33172 | 29 ft | 2 kts | 270° |
| 2026-04-25 22:13 | 54.91389 | 8.33215 | 29 ft | 2 kts | 219° |
| 2026-04-25 22:13 | 54.91399 | 8.33230 | 29 ft | 2 kts | 217° |
| 2026-04-25 22:13 | 54.91419 | 8.33238 | 29 ft | 2 kts | 160° |
| 2026-04-25 22:14 | 54.91431 | 8.33229 | 29 ft | 2 kts | 149° |
| 2026-04-25 22:14 | 54.91440 | 8.33219 | 29 ft | 2 kts | 142° |
| 2026-04-25 22:14 | 54.91447 | 8.33211 | 29 ft | 0 kts | 150° |
| 2026-04-25 22:17 | 54.91442 | 8.33215 | 29 ft | 3 kts | 150° |
| 2026-04-25 22:17 | 54.91438 | 8.33219 | 29 ft | 3 kts | 150° |
| 2026-04-25 22:17 | 54.91362 | 8.33251 | 29 ft | 10 kts | 179° |
| 2026-04-25 22:18 | 54.91298 | 8.33210 | 29 ft | 13 kts | 209° |
| 2026-04-25 22:18 | 54.91210 | 8.33181 | 33 ft | 9 kts | 179° |
| 2026-04-25 22:18 | 54.91122 | 8.33183 | 35 ft | 23 kts | 180° |
| 2026-04-25 22:18 | 54.91043 | 8.33172 | 34 ft | 22 kts | 196° |
| 2026-04-25 22:19 | 54.90988 | 8.33128 | 34 ft | 17 kts | 207° |
| 2026-04-25 22:19 | 54.90948 | 8.33118 | 34 ft | 14 kts | 167° |
| 2026-04-25 22:19 | 54.90855 | 8.33193 | 35 ft | 15 kts | 161° |
| 2026-04-25 22:19 | 54.90783 | 8.33218 | 35 ft | 18 kts | 174° |
| 2026-04-25 22:20 | 54.90557 | 8.33247 | 34 ft | 19 kts | 174° |
| 2026-04-25 22:20 | 54.90435 | 8.33319 | 33 ft | 18 kts | 150° |
| 2026-04-25 22:20 | 54.90358 | 8.33417 | 33 ft | 18 kts | 139° |
| 2026-04-25 22:20 | 54.90288 | 8.33591 | 32 ft | 16 kts | 116° |
| 2026-04-25 22:21 | 54.90251 | 8.33838 | 33 ft | 21 kts | 97° |
| 2026-04-25 22:21 | 54.90241 | 8.34201 | 34 ft | 21 kts | 81° |
| 2026-04-25 22:21 | 54.90260 | 8.34372 | 34 ft | 24 kts | 78° |
| 2026-04-25 22:21 | 54.90279 | 8.34560 | 35 ft | 28 kts | 80° |
| 2026-04-25 22:22 | 54.90328 | 8.35034 | 34 ft | 17 kts | 76° |
| 2026-04-25 22:22 | 54.90383 | 8.35179 | 36 ft | 13 kts | 54° |
| 2026-04-25 22:22 | 54.90427 | 8.35159 | 36 ft | 9 kts | 311° |
| 2026-04-25 22:22 | 54.90440 | 8.35142 | 37 ft | 0 kts | 323° |
| 2026-04-25 22:24 | 54.90509 | 8.35055 | 37 ft | 47 kts | 325° |
| 2026-04-25 22:24 | 54.92437 | 8.32618 | 1160 ft | 138 kts | 328° |
| 2026-04-25 22:24 | 54.93012 | 8.31958 | 1629 ft | 148 kts | 331° |
| 2026-04-25 22:25 | 54.93581 | 8.31314 | 1937 ft | 161 kts | 331° |
| 2026-04-25 22:25 | 54.95051 | 8.29596 | 2663 ft | 188 kts | 328° |
| 2026-04-25 22:25 | 54.95677 | 8.28809 | 3069 ft | 190 kts | 329° |
| 2026-04-25 22:25 | 54.96356 | 8.27996 | 3570 ft | 187 kts | 331° |
| 2026-04-25 22:26 | 54.97172 | 8.27015 | 3838 ft | 196 kts | 329° |
| 2026-04-25 22:26 | 54.97890 | 8.26122 | 4320 ft | 193 kts | 330° |
| 2026-04-25 22:26 | 54.98579 | 8.25080 | 4545 ft | 204 kts | 310° |
| 2026-04-25 22:26 | 54.98914 | 8.23678 | 5088 ft | 213 kts | 282° |
| 2026-04-25 22:27 | 54.98846 | 8.22130 | 5580 ft | 228 kts | 257° |
| 2026-04-25 22:27 | 54.98119 | 8.19808 | 6521 ft | 229 kts | 241° |
| 2026-04-25 22:27 | 54.96699 | 8.17140 | 7633 ft | 240 kts | 227° |
| 2026-04-25 22:27 | 54.95148 | 8.14854 | 8711 ft | 240 kts | 230° |
| 2026-04-25 22:28 | 54.93276 | 8.13070 | 9759 ft | 262 kts | 201° |
| 2026-04-25 22:28 | 54.89891 | 8.14049 | 10576 ft | 310 kts | 146° |
| 2026-04-25 22:28 | 54.88201 | 8.16437 | 11013 ft | 345 kts | 133° |
| 2026-04-25 22:28 | 54.85595 | 8.21341 | 12305 ft | 340 kts | 126° |
| 2026-04-25 22:29 | 54.84018 | 8.24547 | 13027 ft | 351 kts | 130° |
| 2026-04-25 22:29 | 54.82197 | 8.27425 | 13775 ft | 361 kts | 146° |
| 2026-04-25 22:29 | 54.80022 | 8.29682 | 14459 ft | 366 kts | 150° |
| 2026-04-25 22:30 | 54.75578 | 8.34202 | 15814 ft | 374 kts | 149° |
| 2026-04-25 22:30 | 54.73340 | 8.36566 | 16545 ft | 379 kts | 148° |
| 2026-04-25 22:30 | 54.71131 | 8.39080 | 17237 ft | 382 kts | 141° |
| 2026-04-25 22:30 | 54.70437 | 8.40075 | 17506 ft | 383 kts | 136° |
| 2026-04-25 22:31 | 54.67061 | 8.45354 | 18007 ft | 413 kts | 142° |
| 2026-04-25 22:31 | 54.64689 | 8.48249 | 18400 ft | 425 kts | 147° |
| 2026-04-25 22:31 | 54.62997 | 8.50106 | 18759 ft | 429 kts | 148° |
| 2026-04-25 22:31 | 54.60441 | 8.52777 | 19338 ft | 434 kts | 149° |
| 2026-04-25 22:32 | 54.57811 | 8.55502 | 19950 ft | 437 kts | 149° |
| 2026-04-25 22:32 | 54.56972 | 8.56384 | 20150 ft | 439 kts | 149° |